Main page
METAR-TAF:

METAR-TAF

Airports :

Branson Airport

Branson, Missouri, United States

latitude: 36-31-55N, longitude: 093-12-02W, elevation: 1302 ft

Current weather observation

The report was made 17 minutes ago, at 05:15 UTC
Calm wind
Temperature 37°F
Humidity 75%
Pressure 30.26 in. Hg
Visibility: 10 miles
Clear sky

METAR: KBBG 220515Z AUTO 00000KT 10SM CLR 03/M01 A3026 RMK AO2

Time: 00:32 (05:32 UTC)

Forecast

The report was made 12 minutes ago, at 05:20 UTC
Forecast valid from 22 at 06 UTC to 23 at 06 UTC
Wind 6 mph from variable directions
Visibility: 6 miles
Clear sky
From 22 at 1600 UTC
Wind 8 mph from the South
Visibility: 6 miles
Clear sky
From 22 at 2000 UTC
Wind 12 mph from the South/Southwest with gusts up to 23 mph
Visibility: 6 miles
Clear sky
From 23 at 0100 UTC
Wind 10 mph from the South
Visibility: 6 miles
Clear sky

TAF: KBBG 220520Z 2206/2306 VRB05KT P6SM SKC FM221600 19007KT P6SM SKC FM222000 20010G20KT P6SM SKC FM230100 18009KT P6SM SKC

Weather observations and forecasts of more than 4000 airports (METAR and TAF reports).

The available stations are represented by yellow and red dots on the map.

Hover mouse over dot to see the name of the station.

Then click to see weather observations and forecasts.

To change the map : click on the green buttons with a black cross to zoom in, on the green button with a dash to zoom out, or on the green arrows for adjacent maps.


METAR-TAF: